Airport View

Enter AWOS ICAO identifier for current METAR.

ex. KFNL

KGCD 290335Z AUTO 13006KT 10SM CLR 20/02 A3032 RMK AO2 T02010018

29 Sep 2020 03:44

Frequency: 118.375

Phone: 541-575-1122

Other Area AWOS: KBNO - KBKE - KLGD - KMEH

TAF KBNO 282320Z 2900/2924 VRB05KT P6SM SKC